sensor_id;sensor_type;location;lat;lon;timestamp;temperature;humidity
2639;DHT22;1329;51.384;7.122;2022-11-11T00:01:11;12.00;28.60
2639;DHT22;1329;51.384;7.122;2022-11-11T00:03:41;12.00;28.70
2639;DHT22;1329;51.384;7.122;2022-11-11T00:06:10;12.00;28.80
2639;DHT22;1329;51.384;7.122;2022-11-11T00:08:38;12.00;28.80
2639;DHT22;1329;51.384;7.122;2022-11-11T00:11:07;12.00;28.90
2639;DHT22;1329;51.384;7.122;2022-11-11T00:13:37;12.00;29.00
2639;DHT22;1329;51.384;7.122;2022-11-11T00:16:05;12.00;29.00
2639;DHT22;1329;51.384;7.122;2022-11-11T00:18:35;12.00;29.00
2639;DHT22;1329;51.384;7.122;2022-11-11T00:21:21;12.00;28.90
2639;DHT22;1329;51.384;7.122;2022-11-11T00:24:18;12.00;28.70
2639;DHT22;1329;51.384;7.122;2022-11-11T00:27:06;12.00;28.60
2639;DHT22;1329;51.384;7.122;2022-11-11T00:29:33;12.00;28.50
2639;DHT22;1329;51.384;7.122;2022-11-11T00:32:02;11.90;28.50
2639;DHT22;1329;51.384;7.122;2022-11-11T00:34:46;11.90;28.80
2639;DHT22;1329;51.384;7.122;2022-11-11T00:37:28;11.90;28.70
2639;DHT22;1329;51.384;7.122;2022-11-11T00:39:55;11.90;29.00
2639;DHT22;1329;51.384;7.122;2022-11-11T00:42:22;11.90;29.20
2639;DHT22;1329;51.384;7.122;2022-11-11T00:44:49;11.90;29.20
2639;DHT22;1329;51.384;7.122;2022-11-11T00:47:16;11.90;29.40
2639;DHT22;1329;51.384;7.122;2022-11-11T00:50:01;11.80;29.50
2639;DHT22;1329;51.384;7.122;2022-11-11T00:52:47;11.80;29.40
2639;DHT22;1329;51.384;7.122;2022-11-11T00:55:15;11.80;29.60
2639;DHT22;1329;51.384;7.122;2022-11-11T00:57:41;11.80;29.50
2639;DHT22;1329;51.384;7.122;2022-11-11T01:00:09;11.80;29.70
2639;DHT22;1329;51.384;7.122;2022-11-11T01:02:38;11.80;30.00
2639;DHT22;1329;51.384;7.122;2022-11-11T01:05:06;11.80;30.40
2639;DHT22;1329;51.384;7.122;2022-11-11T01:07:33;11.70;30.70
2639;DHT22;1329;51.384;7.122;2022-11-11T01:10:03;11.70;30.70
2639;DHT22;1329;51.384;7.122;2022-11-11T01:12:31;11.70;30.90
2639;DHT22;1329;51.384;7.122;2022-11-11T01:14:58;11.70;31.00
2639;DHT22;1329;51.384;7.122;2022-11-11T01:17:27;11.70;31.30
2639;DHT22;1329;51.384;7.122;2022-11-11T01:19:54;11.70;31.70
2639;DHT22;1329;51.384;7.122;2022-11-11T01:22:21;11.70;31.80
2639;DHT22;1329;51.384;7.122;2022-11-11T01:24:48;11.70;31.50
2639;DHT22;1329;51.384;7.122;2022-11-11T01:27:16;11.70;31.70
2639;DHT22;1329;51.384;7.122;2022-11-11T01:29:43;11.70;31.30
2639;DHT22;1329;51.384;7.122;2022-11-11T01:32:10;11.70;31.20
2639;DHT22;1329;51.384;7.122;2022-11-11T01:34:37;11.70;31.20
2639;DHT22;1329;51.384;7.122;2022-11-11T01:37:04;11.70;31.10
2639;DHT22;1329;51.384;7.122;2022-11-11T01:39:31;11.70;30.80
2639;DHT22;1329;51.384;7.122;2022-11-11T01:41:58;11.70;30.90
2639;DHT22;1329;51.384;7.122;2022-11-11T01:44:48;11.70;30.70
2639;DHT22;1329;51.384;7.122;2022-11-11T01:47:16;11.80;30.10
2639;DHT22;1329;51.384;7.122;2022-11-11T01:49:49;11.80;30.30
2639;DHT22;1329;51.384;7.122;2022-11-11T01:52:20;11.80;29.90
2639;DHT22;1329;51.384;7.122;2022-11-11T01:54:52;11.70;30.00
2639;DHT22;1329;51.384;7.122;2022-11-11T01:57:24;11.70;30.00
2639;DHT22;1329;51.384;7.122;2022-11-11T02:00:03;11.70;30.10
2639;DHT22;1329;51.384;7.122;2022-11-11T02:02:36;11.70;29.80
2639;DHT22;1329;51.384;7.122;2022-11-11T02:05:08;11.70;30.00
2639;DHT22;1329;51.384;7.122;2022-11-11T02:07:57;11.70;30.00
2639;DHT22;1329;51.384;7.122;2022-11-11T02:10:28;11.70;29.90
2639;DHT22;1329;51.384;7.122;2022-11-11T02:12:56;11.70;30.10
2639;DHT22;1329;51.384;7.122;2022-11-11T02:15:42;11.70;30.30
2639;DHT22;1329;51.384;7.122;2022-11-11T02:18:10;11.70;30.00
2639;DHT22;1329;51.384;7.122;2022-11-11T02:20:38;11.70;30.00
2639;DHT22;1329;51.384;7.122;2022-11-11T02:23:09;11.70;30.00
2639;DHT22;1329;51.384;7.122;2022-11-11T02:25:39;11.70;30.00
2639;DHT22;1329;51.384;7.122;2022-11-11T02:28:08;11.70;30.00
2639;DHT22;1329;51.384;7.122;2022-11-11T02:30:36;11.70;30.00
2639;DHT22;1329;51.384;7.122;2022-11-11T02:33:03;11.70;30.00
2639;DHT22;1329;51.384;7.122;2022-11-11T02:35:31;11.60;30.20
2639;DHT22;1329;51.384;7.122;2022-11-11T02:38:00;11.60;30.40
2639;DHT22;1329;51.384;7.122;2022-11-11T02:40:36;11.60;30.30
2639;DHT22;1329;51.384;7.122;2022-11-11T02:43:27;11.60;30.00
2639;DHT22;1329;51.384;7.122;2022-11-11T02:45:54;11.60;29.90
2639;DHT22;1329;51.384;7.122;2022-11-11T02:48:21;11.60;30.00
2639;DHT22;1329;51.384;7.122;2022-11-11T02:50:49;11.60;30.00
2639;DHT22;1329;51.384;7.122;2022-11-11T02:53:16;11.60;30.00
2639;DHT22;1329;51.384;7.122;2022-11-11T02:55:45;11.60;30.60
2639;DHT22;1329;51.384;7.122;2022-11-11T02:58:12;11.60;30.60
2639;DHT22;1329;51.384;7.122;2022-11-11T03:00:39;11.60;30.80
2639;DHT22;1329;51.384;7.122;2022-11-11T03:03:07;11.50;30.50
2639;DHT22;1329;51.384;7.122;2022-11-11T03:05:34;11.50;30.50
2639;DHT22;1329;51.384;7.122;2022-11-11T03:08:01;11.50;30.50
2639;DHT22;1329;51.384;7.122;2022-11-11T03:10:28;11.50;30.00
2639;DHT22;1329;51.384;7.122;2022-11-11T03:12:57;11.50;30.10
2639;DHT22;1329;51.384;7.122;2022-11-11T03:15:24;11.50;31.10
2639;DHT22;1329;51.384;7.122;2022-11-11T03:17:51;11.40;30.00
2639;DHT22;1329;51.384;7.122;2022-11-11T03:20:18;11.40;30.00
2639;DHT22;1329;51.384;7.122;2022-11-11T03:23:04;11.40;30.20
2639;DHT22;1329;51.384;7.122;2022-11-11T03:25:32;11.40;30.20
2639;DHT22;1329;51.384;7.122;2022-11-11T03:28:07;11.40;30.40
2639;DHT22;1329;51.384;7.122;2022-11-11T03:30:37;11.30;30.50
2639;DHT22;1329;51.384;7.122;2022-11-11T03:33:04;11.30;30.60
2639;DHT22;1329;51.384;7.122;2022-11-11T03:35:32;11.30;30.80
2639;DHT22;1329;51.384;7.122;2022-11-11T03:37:59;11.30;31.10
2639;DHT22;1329;51.384;7.122;2022-11-11T03:40:49;11.30;31.60
2639;DHT22;1329;51.384;7.122;2022-11-11T03:43:21;11.30;31.70
2639;DHT22;1329;51.384;7.122;2022-11-11T03:45:49;11.30;31.90
2639;DHT22;1329;51.384;7.122;2022-11-11T03:48:16;11.30;31.80
2639;DHT22;1329;51.384;7.122;2022-11-11T03:50:43;11.30;31.80
2639;DHT22;1329;51.384;7.122;2022-11-11T03:53:11;11.20;31.70
2639;DHT22;1329;51.384;7.122;2022-11-11T03:55:39;11.20;31.80
2639;DHT22;1329;51.384;7.122;2022-11-11T03:58:06;11.20;32.20
2639;DHT22;1329;51.384;7.122;2022-11-11T04:00:35;11.20;32.40
2639;DHT22;1329;51.384;7.122;2022-11-11T04:03:04;11.20;32.30
2639;DHT22;1329;51.384;7.122;2022-11-11T04:05:50;11.20;32.70
2639;DHT22;1329;51.384;7.122;2022-11-11T04:08:35;11.20;32.90
2639;DHT22;1329;51.384;7.122;2022-11-11T04:11:24;11.20;33.10
2639;DHT22;1329;51.384;7.122;2022-11-11T04:13:55;11.20;32.90
2639;DHT22;1329;51.384;7.122;2022-11-11T04:16:43;11.20;33.00
2639;DHT22;1329;51.384;7.122;2022-11-11T04:19:09;11.20;32.90
2639;DHT22;1329;51.384;7.122;2022-11-11T04:22:09;11.20;33.10
2639;DHT22;1329;51.384;7.122;2022-11-11T04:24:36;11.20;32.80
2639;DHT22;1329;51.384;7.122;2022-11-11T04:27:21;11.20;32.80
2639;DHT22;1329;51.384;7.122;2022-11-11T04:29:48;11.20;32.50
2639;DHT22;1329;51.384;7.122;2022-11-11T04:32:18;11.20;32.30
2639;DHT22;1329;51.384;7.122;2022-11-11T04:35:04;11.20;32.00
2639;DHT22;1329;51.384;7.122;2022-11-11T04:37:34;11.20;32.30
2639;DHT22;1329;51.384;7.122;2022-11-11T04:40:03;11.20;32.20
2639;DHT22;1329;51.384;7.122;2022-11-11T04:42:52;11.20;32.20
2639;DHT22;1329;51.384;7.122;2022-11-11T04:45:19;11.20;31.80
2639;DHT22;1329;51.384;7.122;2022-11-11T04:47:58;11.20;32.70
2639;DHT22;1329;51.384;7.122;2022-11-11T04:50:27;11.20;32.10
2639;DHT22;1329;51.384;7.122;2022-11-11T04:52:55;11.20;32.40
2639;DHT22;1329;51.384;7.122;2022-11-11T04:55:22;11.20;32.70
2639;DHT22;1329;51.384;7.122;2022-11-11T04:58:07;11.20;32.60
2639;DHT22;1329;51.384;7.122;2022-11-11T05:00:34;11.20;32.10
2639;DHT22;1329;51.384;7.122;2022-11-11T05:03:03;11.20;32.30
2639;DHT22;1329;51.384;7.122;2022-11-11T05:05:45;11.20;31.80
2639;DHT22;1329;51.384;7.122;2022-11-11T05:08:31;11.20;32.10
2639;DHT22;1329;51.384;7.122;2022-11-11T05:11:16;11.20;32.20
2639;DHT22;1329;51.384;7.122;2022-11-11T05:13:45;11.30;32.30
2639;DHT22;1329;51.384;7.122;2022-11-11T05:16:32;11.20;32.20
2639;DHT22;1329;51.384;7.122;2022-11-11T05:19:18;11.20;31.70
2639;DHT22;1329;51.384;7.122;2022-11-11T05:22:08;11.30;31.60
2639;DHT22;1329;51.384;7.122;2022-11-11T05:24:37;11.30;31.30
2639;DHT22;1329;51.384;7.122;2022-11-11T05:27:21;11.30;32.30
2639;DHT22;1329;51.384;7.122;2022-11-11T05:29:49;11.30;32.00
2639;DHT22;1329;51.384;7.122;2022-11-11T05:32:16;11.20;31.80
2639;DHT22;1329;51.384;7.122;2022-11-11T05:34:46;11.20;31.70
2639;DHT22;1329;51.384;7.122;2022-11-11T05:37:13;11.30;31.40
2639;DHT22;1329;51.384;7.122;2022-11-11T05:39:40;11.20;31.50
2639;DHT22;1329;51.384;7.122;2022-11-11T05:42:08;11.20;31.60
2639;DHT22;1329;51.384;7.122;2022-11-11T05:44:35;11.30;31.50
2639;DHT22;1329;51.384;7.122;2022-11-11T05:47:02;11.30;31.60
2639;DHT22;1329;51.384;7.122;2022-11-11T05:49:29;11.30;31.10
2639;DHT22;1329;51.384;7.122;2022-11-11T05:51:58;11.20;31.30
2639;DHT22;1329;51.384;7.122;2022-11-11T05:54:25;11.30;30.70
2639;DHT22;1329;51.384;7.122;2022-11-11T05:56:52;11.30;31.10
2639;DHT22;1329;51.384;7.122;2022-11-11T05:59:20;11.20;31.10
2639;DHT22;1329;51.384;7.122;2022-11-11T06:01:47;11.20;30.40
2639;DHT22;1329;51.384;7.122;2022-11-11T06:04:14;11.30;30.80
2639;DHT22;1329;51.384;7.122;2022-11-11T06:06:41;11.30;31.00
2639;DHT22;1329;51.384;7.122;2022-11-11T06:09:09;11.30;30.90
2639;DHT22;1329;51.384;7.122;2022-11-11T06:11:37;11.30;30.00
2639;DHT22;1329;51.384;7.122;2022-11-11T06:14:05;11.20;30.70
2639;DHT22;1329;51.384;7.122;2022-11-11T06:16:32;11.30;30.60
2639;DHT22;1329;51.384;7.122;2022-11-11T06:19:00;11.20;30.60
2639;DHT22;1329;51.384;7.122;2022-11-11T06:21:30;11.30;30.70
2639;DHT22;1329;51.384;7.122;2022-11-11T06:23:58;11.30;30.30
2639;DHT22;1329;51.384;7.122;2022-11-11T06:26:27;11.20;30.00
2639;DHT22;1329;51.384;7.122;2022-11-11T06:28:56;11.30;30.00
2639;DHT22;1329;51.384;7.122;2022-11-11T06:31:25;11.30;30.50
2639;DHT22;1329;51.384;7.122;2022-11-11T06:33:53;11.30;30.00
2639;DHT22;1329;51.384;7.122;2022-11-11T06:36:22;11.30;30.50
2639;DHT22;1329;51.384;7.122;2022-11-11T06:38:49;11.30;30.70
2639;DHT22;1329;51.384;7.122;2022-11-11T06:41:16;11.30;30.60
2639;DHT22;1329;51.384;7.122;2022-11-11T06:43:44;11.30;30.80
2639;DHT22;1329;51.384;7.122;2022-11-11T06:46:17;11.30;30.20
2639;DHT22;1329;51.384;7.122;2022-11-11T06:48:48;11.30;29.70
2639;DHT22;1329;51.384;7.122;2022-11-11T06:51:15;11.30;30.50
2639;DHT22;1329;51.384;7.122;2022-11-11T06:53:42;11.30;30.40
2639;DHT22;1329;51.384;7.122;2022-11-11T06:56:13;11.30;30.40
2639;DHT22;1329;51.384;7.122;2022-11-11T06:58:41;11.30;29.20
2639;DHT22;1329;51.384;7.122;2022-11-11T07:01:09;11.30;30.20
2639;DHT22;1329;51.384;7.122;2022-11-11T07:03:36;11.30;29.80
2639;DHT22;1329;51.384;7.122;2022-11-11T07:06:04;11.30;30.20
2639;DHT22;1329;51.384;7.122;2022-11-11T07:08:31;11.30;30.00
2639;DHT22;1329;51.384;7.122;2022-11-11T07:10:59;11.30;30.20
2639;DHT22;1329;51.384;7.122;2022-11-11T07:13:26;11.30;30.10
2639;DHT22;1329;51.384;7.122;2022-11-11T07:15:53;11.40;30.10
2639;DHT22;1329;51.384;7.122;2022-11-11T07:18:21;11.40;31.30
2639;DHT22;1329;51.384;7.122;2022-11-11T07:20:48;11.40;29.60
2639;DHT22;1329;51.384;7.122;2022-11-11T07:23:15;11.40;29.90
2639;DHT22;1329;51.384;7.122;2022-11-11T07:25:42;11.40;30.00
2639;DHT22;1329;51.384;7.122;2022-11-11T07:28:11;11.40;30.00
2639;DHT22;1329;51.384;7.122;2022-11-11T07:30:38;11.40;30.00
2639;DHT22;1329;51.384;7.122;2022-11-11T07:33:06;11.50;30.00
2639;DHT22;1329;51.384;7.122;2022-11-11T07:35:35;11.40;30.00
2639;DHT22;1329;51.384;7.122;2022-11-11T07:38:04;11.50;29.20
2639;DHT22;1329;51.384;7.122;2022-11-11T07:40:31;11.50;30.00
2639;DHT22;1329;51.384;7.122;2022-11-11T07:42:58;11.50;30.00
2639;DHT22;1329;51.384;7.122;2022-11-11T07:45:24;11.50;29.80
2639;DHT22;1329;51.384;7.122;2022-11-11T07:47:51;11.50;29.70
2639;DHT22;1329;51.384;7.122;2022-11-11T07:50:18;11.50;29.50
2639;DHT22;1329;51.384;7.122;2022-11-11T07:52:49;11.60;29.20
2639;DHT22;1329;51.384;7.122;2022-11-11T07:55:16;11.60;28.00
2639;DHT22;1329;51.384;7.122;2022-11-11T07:57:45;11.60;29.20
2639;DHT22;1329;51.384;7.122;2022-11-11T08:00:13;11.60;29.10
2639;DHT22;1329;51.384;7.122;2022-11-11T08:02:45;11.60;28.60
2639;DHT22;1329;51.384;7.122;2022-11-11T08:05:13;11.70;27.20
2639;DHT22;1329;51.384;7.122;2022-11-11T08:07:40;11.70;28.80
2639;DHT22;1329;51.384;7.122;2022-11-11T08:10:11;11.70;28.80
2639;DHT22;1329;51.384;7.122;2022-11-11T08:12:38;11.80;28.00
2639;DHT22;1329;51.384;7.122;2022-11-11T08:15:23;11.80;28.30
2639;DHT22;1329;51.384;7.122;2022-11-11T08:17:50;11.80;27.90
2639;DHT22;1329;51.384;7.122;2022-11-11T08:20:17;11.80;27.70
2639;DHT22;1329;51.384;7.122;2022-11-11T08:22:43;11.90;27.70
2639;DHT22;1329;51.384;7.122;2022-11-11T08:25:12;11.90;27.70
2639;DHT22;1329;51.384;7.122;2022-11-11T08:27:39;12.00;26.20
2639;DHT22;1329;51.384;7.122;2022-11-11T08:30:07;12.00;27.10
2639;DHT22;1329;51.384;7.122;2022-11-11T08:32:35;12.00;26.30
2639;DHT22;1329;51.384;7.122;2022-11-11T08:35:02;12.10;26.90
2639;DHT22;1329;51.384;7.122;2022-11-11T08:37:29;12.10;26.40
2639;DHT22;1329;51.384;7.122;2022-11-11T08:39:59;12.10;26.20
2639;DHT22;1329;51.384;7.122;2022-11-11T08:42:28;12.20;26.20
2639;DHT22;1329;51.384;7.122;2022-11-11T08:44:56;12.20;24.90
2639;DHT22;1329;51.384;7.122;2022-11-11T08:47:22;12.30;25.80
2639;DHT22;1329;51.384;7.122;2022-11-11T08:49:50;12.30;25.50
2639;DHT22;1329;51.384;7.122;2022-11-11T08:52:17;12.30;24.80
2639;DHT22;1329;51.384;7.122;2022-11-11T08:54:44;12.30;24.80
2639;DHT22;1329;51.384;7.122;2022-11-11T08:57:11;12.40;24.70
2639;DHT22;1329;51.384;7.122;2022-11-11T08:59:39;12.40;24.80
2639;DHT22;1329;51.384;7.122;2022-11-11T09:02:09;12.50;23.50
2639;DHT22;1329;51.384;7.122;2022-11-11T09:04:40;12.50;23.10
2639;DHT22;1329;51.384;7.122;2022-11-11T09:07:08;12.50;24.40
2639;DHT22;1329;51.384;7.122;2022-11-11T09:09:36;12.60;23.80
2639;DHT22;1329;51.384;7.122;2022-11-11T09:12:03;12.60;23.70
2639;DHT22;1329;51.384;7.122;2022-11-11T09:14:30;12.60;23.40
2639;DHT22;1329;51.384;7.122;2022-11-11T09:16:58;12.70;23.80
2639;DHT22;1329;51.384;7.122;2022-11-11T09:19:25;12.70;22.30
2639;DHT22;1329;51.384;7.122;2022-11-11T09:21:53;12.80;23.40
2639;DHT22;1329;51.384;7.122;2022-11-11T09:24:21;12.80;22.10
2639;DHT22;1329;51.384;7.122;2022-11-11T09:26:48;12.90;22.70
2639;DHT22;1329;51.384;7.122;2022-11-11T09:29:15;12.90;22.50
2639;DHT22;1329;51.384;7.122;2022-11-11T09:31:43;12.90;22.10
2639;DHT22;1329;51.384;7.122;2022-11-11T09:34:12;13.00;21.50
2639;DHT22;1329;51.384;7.122;2022-11-11T09:36:40;13.00;20.60
2639;DHT22;1329;51.384;7.122;2022-11-11T09:39:08;13.00;21.80
2639;DHT22;1329;51.384;7.122;2022-11-11T09:41:44;13.10;21.50
2639;DHT22;1329;51.384;7.122;2022-11-11T09:44:33;13.10;18.80
2639;DHT22;1329;51.384;7.122;2022-11-11T09:47:12;13.20;18.30
2639;DHT22;1329;51.384;7.122;2022-11-11T09:49:51;13.20;19.20
2639;DHT22;1329;51.384;7.122;2022-11-11T09:52:28;13.20;17.10
2639;DHT22;1329;51.384;7.122;2022-11-11T09:55:00;13.30;18.50
2639;DHT22;1329;51.384;7.122;2022-11-11T09:57:35;13.30;18.60
2639;DHT22;1329;51.384;7.122;2022-11-11T10:00:12;13.30;17.20
2639;DHT22;1329;51.384;7.122;2022-11-11T10:02:45;13.40;18.40
2639;DHT22;1329;51.384;7.122;2022-11-11T10:05:18;13.40;18.00
2639;DHT22;1329;51.384;7.122;2022-11-11T10:07:51;13.40;17.60
2639;DHT22;1329;51.384;7.122;2022-11-11T10:10:26;13.50;18.20
2639;DHT22;1329;51.384;7.122;2022-11-11T10:12:57;13.50;17.70
2639;DHT22;1329;51.384;7.122;2022-11-11T10:15:28;13.50;19.10
2639;DHT22;1329;51.384;7.122;2022-11-11T10:18:18;13.60;17.70
2639;DHT22;1329;51.384;7.122;2022-11-11T10:20:55;13.60;14.80
2639;DHT22;1329;51.384;7.122;2022-11-11T10:23:25;13.70;17.60
2639;DHT22;1329;51.384;7.122;2022-11-11T10:25:56;13.70;16.00
2639;DHT22;1329;51.384;7.122;2022-11-11T10:28:30;13.70;17.00
2639;DHT22;1329;51.384;7.122;2022-11-11T10:31:00;13.70;16.10
2639;DHT22;1329;51.384;7.122;2022-11-11T10:33:31;13.80;16.60
2639;DHT22;1329;51.384;7.122;2022-11-11T10:36:08;13.80;16.00
2639;DHT22;1329;51.384;7.122;2022-11-11T10:38:48;13.80;15.50
2639;DHT22;1329;51.384;7.122;2022-11-11T10:41:19;13.90;13.90
2639;DHT22;1329;51.384;7.122;2022-11-11T10:43:49;13.90;15.10
2639;DHT22;1329;51.384;7.122;2022-11-11T10:46:19;14.00;17.00
2639;DHT22;1329;51.384;7.122;2022-11-11T10:48:53;14.00;15.50
2639;DHT22;1329;51.384;7.122;2022-11-11T10:51:28;14.00;13.40
2639;DHT22;1329;51.384;7.122;2022-11-11T10:54:02;14.00;13.50
2639;DHT22;1329;51.384;7.122;2022-11-11T10:56:35;14.10;13.00
2639;DHT22;1329;51.384;7.122;2022-11-11T10:59:10;14.10;11.90
2639;DHT22;1329;51.384;7.122;2022-11-11T11:01:46;14.10;11.50
2639;DHT22;1329;51.384;7.122;2022-11-11T11:04:25;14.10;13.10
2639;DHT22;1329;51.384;7.122;2022-11-11T11:06:58;14.20;12.20
2639;DHT22;1329;51.384;7.122;2022-11-11T11:09:29;14.20;11.20
2639;DHT22;1329;51.384;7.122;2022-11-11T11:12:11;14.20;11.10
2639;DHT22;1329;51.384;7.122;2022-11-11T11:14:43;14.30;11.30
2639;DHT22;1329;51.384;7.122;2022-11-11T11:17:15;14.30;12.90
2639;DHT22;1329;51.384;7.122;2022-11-11T11:20:06;14.40;11.30
2639;DHT22;1329;51.384;7.122;2022-11-11T11:22:46;14.40;8.90
2639;DHT22;1329;51.384;7.122;2022-11-11T11:25:14;14.50;8.30
2639;DHT22;1329;51.384;7.122;2022-11-11T11:27:44;14.50;11.70
2639;DHT22;1329;51.384;7.122;2022-11-11T11:30:13;14.60;12.00
2639;DHT22;1329;51.384;7.122;2022-11-11T11:32:41;14.60;9.20
2639;DHT22;1329;51.384;7.122;2022-11-11T11:35:09;14.70;10.80
2639;DHT22;1329;51.384;7.122;2022-11-11T11:37:58;14.70;10.70
2639;DHT22;1329;51.384;7.122;2022-11-11T11:40:26;14.80;8.50
2639;DHT22;1329;51.384;7.122;2022-11-11T11:42:53;14.80;8.10
2639;DHT22;1329;51.384;7.122;2022-11-11T11:45:22;14.90;9.20
2639;DHT22;1329;51.384;7.122;2022-11-11T11:48:04;14.90;6.90
2639;DHT22;1329;51.384;7.122;2022-11-11T11:50:45;14.90;3.30
2639;DHT22;1329;51.384;7.122;2022-11-11T11:53:29;15.00;4.70
2639;DHT22;1329;51.384;7.122;2022-11-11T11:56:09;15.00;3.00
2639;DHT22;1329;51.384;7.122;2022-11-11T11:58:54;15.10;2.00
2639;DHT22;1329;51.384;7.122;2022-11-11T12:01:28;15.10;1.70
2639;DHT22;1329;51.384;7.122;2022-11-11T12:07:12;15.10;1.30
2639;DHT22;1329;51.384;7.122;2022-11-11T12:09:54;15.10;2.40
2639;DHT22;1329;51.384;7.122;2022-11-11T12:12:31;15.10;1.00
2639;DHT22;1329;51.384;7.122;2022-11-11T12:15:12;15.10;2.70
2639;DHT22;1329;51.384;7.122;2022-11-11T12:17:49;15.10;1.90
2639;DHT22;1329;51.384;7.122;2022-11-11T12:20:26;15.20;1.90
2639;DHT22;1329;51.384;7.122;2022-11-11T12:23:20;15.20;2.00
2639;DHT22;1329;51.384;7.122;2022-11-11T12:26:02;15.20;1.00
2639;DHT22;1329;51.384;7.122;2022-11-11T12:28:50;15.20;1.00
2639;DHT22;1329;51.384;7.122;2022-11-11T12:31:29;15.20;1.00
2639;DHT22;1329;51.384;7.122;2022-11-11T12:34:18;15.20;1.00
2639;DHT22;1329;51.384;7.122;2022-11-11T12:36:57;15.30;1.00
2639;DHT22;1329;51.384;7.122;2022-11-11T12:39:49;15.30;1.00
2639;DHT22;1329;51.384;7.122;2022-11-11T12:42:35;15.30;1.00
2639;DHT22;1329;51.384;7.122;2022-11-11T12:45:13;15.30;1.00
2639;DHT22;1329;51.384;7.122;2022-11-11T12:47:51;15.30;1.00
2639;DHT22;1329;51.384;7.122;2022-11-11T12:50:27;15.30;1.00
2639;DHT22;1329;51.384;7.122;2022-11-11T12:53:13;15.30;1.00
2639;DHT22;1329;51.384;7.122;2022-11-11T12:55:50;15.30;1.00
2639;DHT22;1329;51.384;7.122;2022-11-11T12:58:27;15.40;1.00
2639;DHT22;1329;51.384;7.122;2022-11-11T13:01:08;15.40;1.00
2639;DHT22;1329;51.384;7.122;2022-11-11T13:04:01;15.50;1.00
2639;DHT22;1329;51.384;7.122;2022-11-11T13:06:55;15.50;1.00
2639;DHT22;1329;51.384;7.122;2022-11-11T13:09:44;15.50;1.00
2639;DHT22;1329;51.384;7.122;2022-11-11T13:12:19;15.50;1.00
2639;DHT22;1329;51.384;7.122;2022-11-11T13:14:57;15.50;1.00
2639;DHT22;1329;51.384;7.122;2022-11-11T13:17:30;15.50;1.00
2639;DHT22;1329;51.384;7.122;2022-11-11T13:20:02;15.60;1.00
2639;DHT22;1329;51.384;7.122;2022-11-11T13:22:32;15.60;1.00
2639;DHT22;1329;51.384;7.122;2022-11-11T13:25:03;15.60;1.00
2639;DHT22;1329;51.384;7.122;2022-11-11T13:27:37;15.60;1.00
2639;DHT22;1329;51.384;7.122;2022-11-11T13:33:11;15.70;1.00
2639;DHT22;1329;51.384;7.122;2022-11-11T13:35:43;15.70;1.00
2639;DHT22;1329;51.384;7.122;2022-11-11T13:38:22;15.70;1.00
2639;DHT22;1329;51.384;7.122;2022-11-11T13:40:54;15.60;1.00
2639;DHT22;1329;51.384;7.122;2022-11-11T13:43:27;15.60;1.00
2639;DHT22;1329;51.384;7.122;2022-11-11T13:45:58;15.60;1.00
2639;DHT22;1329;51.384;7.122;2022-11-11T13:48:30;15.60;1.00
2639;DHT22;1329;51.384;7.122;2022-11-11T13:51:22;15.60;1.00
2639;DHT22;1329;51.384;7.122;2022-11-11T13:53:51;15.60;1.00
2639;DHT22;1329;51.384;7.122;2022-11-11T13:56:23;15.60;1.00
2639;DHT22;1329;51.384;7.122;2022-11-11T13:58:53;15.60;1.00
2639;DHT22;1329;51.384;7.122;2022-11-11T14:01:22;15.60;1.00
2639;DHT22;1329;51.384;7.122;2022-11-11T14:04:02;15.60;1.00
2639;DHT22;1329;51.384;7.122;2022-11-11T14:06:48;15.60;1.00
2639;DHT22;1329;51.384;7.122;2022-11-11T14:09:54;15.60;1.00
2639;DHT22;1329;51.384;7.122;2022-11-11T14:12:38;15.60;1.00
2639;DHT22;1329;51.384;7.122;2022-11-11T14:15:31;15.60;1.00
2639;DHT22;1329;51.384;7.122;2022-11-11T14:18:02;15.60;1.00
2639;DHT22;1329;51.384;7.122;2022-11-11T14:20:37;15.50;1.00
2639;DHT22;1329;51.384;7.122;2022-11-11T14:23:28;15.50;1.00
2639;DHT22;1329;51.384;7.122;2022-11-11T14:26:28;15.50;1.00
2639;DHT22;1329;51.384;7.122;2022-11-11T14:28:58;15.50;1.00
2639;DHT22;1329;51.384;7.122;2022-11-11T14:35:00;15.40;1.00
2639;DHT22;1329;51.384;7.122;2022-11-11T14:37:59;15.30;1.00
2639;DHT22;1329;51.384;7.122;2022-11-11T14:40:32;15.30;1.00
2639;DHT22;1329;51.384;7.122;2022-11-11T14:42:59;15.20;1.00
2639;DHT22;1329;51.384;7.122;2022-11-11T14:46:09;15.20;1.00
2639;DHT22;1329;51.384;7.122;2022-11-11T14:48:57;15.20;1.00
2639;DHT22;1329;51.384;7.122;2022-11-11T14:51:46;15.10;1.00
2639;DHT22;1329;51.384;7.122;2022-11-11T14:54:27;15.10;1.00
2639;DHT22;1329;51.384;7.122;2022-11-11T14:57:03;15.00;1.00
2639;DHT22;1329;51.384;7.122;2022-11-11T14:59:34;15.00;1.00
2639;DHT22;1329;51.384;7.122;2022-11-11T15:02:03;14.90;1.00
2639;DHT22;1329;51.384;7.122;2022-11-11T15:04:37;14.90;1.00
2639;DHT22;1329;51.384;7.122;2022-11-11T15:07:05;14.80;1.00
2639;DHT22;1329;51.384;7.122;2022-11-11T15:10:00;14.70;1.00
2639;DHT22;1329;51.384;7.122;2022-11-11T15:12:43;14.70;1.00
2639;DHT22;1329;51.384;7.122;2022-11-11T15:15:21;14.60;1.00
2639;DHT22;1329;51.384;7.122;2022-11-11T15:18:01;14.60;1.00
2639;DHT22;1329;51.384;7.122;2022-11-11T15:20:49;14.50;1.10
2639;DHT22;1329;51.384;7.122;2022-11-11T15:23:26;14.50;1.20
2639;DHT22;1329;51.384;7.122;2022-11-11T15:26:04;14.40;1.20
2639;DHT22;1329;51.384;7.122;2022-11-11T15:28:56;14.30;1.50
2639;DHT22;1329;51.384;7.122;2022-11-11T15:31:34;14.20;2.20
2639;DHT22;1329;51.384;7.122;2022-11-11T15:34:21;14.20;1.90
2639;DHT22;1329;51.384;7.122;2022-11-11T15:37:03;14.10;2.10
2639;DHT22;1329;51.384;7.122;2022-11-11T15:39:37;14.00;2.40
2639;DHT22;1329;51.384;7.122;2022-11-11T15:42:11;13.90;2.60
2639;DHT22;1329;51.384;7.122;2022-11-11T15:44:47;13.80;2.80
2639;DHT22;1329;51.384;7.122;2022-11-11T15:47:15;13.80;2.40
2639;DHT22;1329;51.384;7.122;2022-11-11T15:49:45;13.70;2.70
2639;DHT22;1329;51.384;7.122;2022-11-11T15:52:25;13.60;3.00
2639;DHT22;1329;51.384;7.122;2022-11-11T15:54:54;13.50;3.90
2639;DHT22;1329;51.384;7.122;2022-11-11T15:57:25;13.40;3.30
2639;DHT22;1329;51.384;7.122;2022-11-11T15:59:54;13.40;3.70
2639;DHT22;1329;51.384;7.122;2022-11-11T16:02:23;13.30;3.80
2639;DHT22;1329;51.384;7.122;2022-11-11T16:04:55;13.20;4.30
2639;DHT22;1329;51.384;7.122;2022-11-11T16:07:26;13.20;4.80
2639;DHT22;1329;51.384;7.122;2022-11-11T16:09:57;13.10;4.70
2639;DHT22;1329;51.384;7.122;2022-11-11T16:12:30;13.00;4.90
2639;DHT22;1329;51.384;7.122;2022-11-11T16:15:18;13.00;5.40
2639;DHT22;1329;51.384;7.122;2022-11-11T16:17:48;12.90;5.80
2639;DHT22;1329;51.384;7.122;2022-11-11T16:20:20;12.80;5.10
2639;DHT22;1329;51.384;7.122;2022-11-11T16:22:54;12.80;5.80
2639;DHT22;1329;51.384;7.122;2022-11-11T16:25:23;12.70;5.90
2639;DHT22;1329;51.384;7.122;2022-11-11T16:27:51;12.60;5.60
2639;DHT22;1329;51.384;7.122;2022-11-11T16:30:27;12.60;6.40
2639;DHT22;1329;51.384;7.122;2022-11-11T16:32:57;12.50;8.10
2639;DHT22;1329;51.384;7.122;2022-11-11T16:35:28;12.50;6.30
2639;DHT22;1329;51.384;7.122;2022-11-11T16:37:56;12.40;8.10
2639;DHT22;1329;51.384;7.122;2022-11-11T16:40:33;12.30;6.90
2639;DHT22;1329;51.384;7.122;2022-11-11T16:43:17;12.30;7.30
2639;DHT22;1329;51.384;7.122;2022-11-11T16:45:47;12.30;9.20
2639;DHT22;1329;51.384;7.122;2022-11-11T16:48:34;12.20;7.50
2639;DHT22;1329;51.384;7.122;2022-11-11T16:51:08;12.10;9.90
2639;DHT22;1329;51.384;7.122;2022-11-11T16:53:40;12.10;8.80
2639;DHT22;1329;51.384;7.122;2022-11-11T16:56:17;12.00;9.20